sensor_id;sensor_type;location;lat;lon;timestamp;P1;durP1;ratioP1;P2;durP2;ratioP2
44214;SDS011;29884;47.450;19.124;2023-05-10T00:02:10;1.30;;;0.63;;
44214;SDS011;29884;47.450;19.124;2023-05-10T00:04:36;0.88;;;0.60;;
44214;SDS011;29884;47.450;19.124;2023-05-10T00:07:02;1.40;;;0.70;;
44214;SDS011;29884;47.450;19.124;2023-05-10T00:09:27;2.47;;;0.60;;
44214;SDS011;29884;47.450;19.124;2023-05-10T00:11:53;2.30;;;0.70;;
44214;SDS011;29884;47.450;19.124;2023-05-10T00:14:19;1.15;;;0.70;;
44214;SDS011;29884;47.450;19.124;2023-05-10T00:16:44;1.95;;;0.70;;
44214;SDS011;29884;47.450;19.124;2023-05-10T00:19:10;2.47;;;0.80;;
44214;SDS011;29884;47.450;19.124;2023-05-10T00:21:36;1.20;;;0.68;;
44214;SDS011;29884;47.450;19.124;2023-05-10T00:24:02;1.85;;;0.70;;
44214;SDS011;29884;47.450;19.124;2023-05-10T00:26:28;2.72;;;0.68;;
44214;SDS011;29884;47.450;19.124;2023-05-10T00:28:53;1.20;;;0.60;;
44214;SDS011;29884;47.450;19.124;2023-05-10T00:31:19;1.45;;;0.70;;
44214;SDS011;29884;47.450;19.124;2023-05-10T00:33:45;1.42;;;0.80;;
44214;SDS011;29884;47.450;19.124;2023-05-10T00:36:11;1.13;;;0.70;;
44214;SDS011;29884;47.450;19.124;2023-05-10T00:38:36;1.27;;;0.70;;
44214;SDS011;29884;47.450;19.124;2023-05-10T00:41:03;1.85;;;0.55;;
44214;SDS011;29884;47.450;19.124;2023-05-10T00:43:28;1.05;;;0.70;;
44214;SDS011;29884;47.450;19.124;2023-05-10T00:45:54;1.50;;;0.70;;
44214;SDS011;29884;47.450;19.124;2023-05-10T00:48:20;1.00;;;0.60;;
44214;SDS011;29884;47.450;19.124;2023-05-10T00:50:47;1.33;;;0.70;;
44214;SDS011;29884;47.450;19.124;2023-05-10T00:53:12;1.25;;;0.70;;
44214;SDS011;29884;47.450;19.124;2023-05-10T00:55:39;1.63;;;0.70;;
44214;SDS011;29884;47.450;19.124;2023-05-10T00:58:05;1.48;;;0.70;;
44214;SDS011;29884;47.450;19.124;2023-05-10T01:00:32;2.40;;;0.70;;
44214;SDS011;29884;47.450;19.124;2023-05-10T01:02:58;1.52;;;0.80;;
44214;SDS011;29884;47.450;19.124;2023-05-10T01:05:24;1.40;;;0.70;;
44214;SDS011;29884;47.450;19.124;2023-05-10T01:07:52;1.70;;;0.70;;
44214;SDS011;29884;47.450;19.124;2023-05-10T01:10:18;2.63;;;0.75;;
44214;SDS011;29884;47.450;19.124;2023-05-10T01:12:44;1.45;;;0.90;;
44214;SDS011;29884;47.450;19.124;2023-05-10T01:15:12;1.23;;;0.68;;
44214;SDS011;29884;47.450;19.124;2023-05-10T01:17:39;1.55;;;0.70;;
44214;SDS011;29884;47.450;19.124;2023-05-10T01:20:07;1.25;;;0.80;;
44214;SDS011;29884;47.450;19.124;2023-05-10T01:33:54;1.35;;;0.80;;
44214;SDS011;29884;47.450;19.124;2023-05-10T01:36:31;1.30;;;0.80;;
44214;SDS011;29884;47.450;19.124;2023-05-10T01:39:18;1.30;;;0.80;;
44214;SDS011;29884;47.450;19.124;2023-05-10T01:47:05;1.67;;;0.93;;
44214;SDS011;29884;47.450;19.124;2023-05-10T01:49:37;1.27;;;0.80;;
44214;SDS011;29884;47.450;19.124;2023-05-10T01:52:25;1.23;;;0.88;;
44214;SDS011;29884;47.450;19.124;2023-05-10T01:54:56;3.00;;;0.80;;
44214;SDS011;29884;47.450;19.124;2023-05-10T01:57:30;1.77;;;1.00;;
44214;SDS011;29884;47.450;19.124;2023-05-10T01:59:58;1.40;;;0.90;;
44214;SDS011;29884;47.450;19.124;2023-05-10T02:02:26;1.40;;;0.80;;
44214;SDS011;29884;47.450;19.124;2023-05-10T02:04:53;1.38;;;0.73;;
44214;SDS011;29884;47.450;19.124;2023-05-10T02:07:20;1.55;;;0.90;;
44214;SDS011;29884;47.450;19.124;2023-05-10T02:09:48;1.30;;;0.70;;
44214;SDS011;29884;47.450;19.124;2023-05-10T02:12:15;2.08;;;0.90;;
44214;SDS011;29884;47.450;19.124;2023-05-10T02:14:41;1.40;;;0.90;;
44214;SDS011;29884;47.450;19.124;2023-05-10T02:17:08;1.55;;;0.90;;
44214;SDS011;29884;47.450;19.124;2023-05-10T02:19:35;1.45;;;0.90;;
44214;SDS011;29884;47.450;19.124;2023-05-10T02:22:03;1.55;;;0.80;;
44214;SDS011;29884;47.450;19.124;2023-05-10T02:24:30;2.67;;;0.75;;
44214;SDS011;29884;47.450;19.124;2023-05-10T02:26:58;1.35;;;1.00;;
44214;SDS011;29884;47.450;19.124;2023-05-10T02:29:25;2.15;;;1.00;;
44214;SDS011;29884;47.450;19.124;2023-05-10T02:31:54;1.67;;;0.82;;
44214;SDS011;29884;47.450;19.124;2023-05-10T02:34:25;1.50;;;0.93;;
44214;SDS011;29884;47.450;19.124;2023-05-10T02:36:52;1.55;;;0.90;;
44214;SDS011;29884;47.450;19.124;2023-05-10T02:39:19;1.52;;;0.73;;
44214;SDS011;29884;47.450;19.124;2023-05-10T02:41:46;1.67;;;0.80;;
44214;SDS011;29884;47.450;19.124;2023-05-10T02:44:14;3.85;;;0.85;;
44214;SDS011;29884;47.450;19.124;2023-05-10T02:46:42;1.88;;;0.82;;
44214;SDS011;29884;47.450;19.124;2023-05-10T02:49:08;1.10;;;0.80;;
44214;SDS011;29884;47.450;19.124;2023-05-10T02:51:35;1.30;;;0.95;;
44214;SDS011;29884;47.450;19.124;2023-05-10T02:54:13;1.67;;;0.88;;
44214;SDS011;29884;47.450;19.124;2023-05-10T02:56:47;1.55;;;0.80;;
44214;SDS011;29884;47.450;19.124;2023-05-10T02:59:21;3.28;;;0.85;;
44214;SDS011;29884;47.450;19.124;2023-05-10T03:01:47;1.50;;;0.70;;
44214;SDS011;29884;47.450;19.124;2023-05-10T03:04:12;1.50;;;0.80;;
44214;SDS011;29884;47.450;19.124;2023-05-10T03:06:38;1.48;;;0.90;;
44214;SDS011;29884;47.450;19.124;2023-05-10T03:09:05;1.67;;;1.00;;
44214;SDS011;29884;47.450;19.124;2023-05-10T03:19:54;1.50;;;0.80;;
44214;SDS011;29884;47.450;19.124;2023-05-10T03:22:26;2.15;;;1.08;;
44214;SDS011;29884;47.450;19.124;2023-05-10T03:24:57;2.88;;;0.98;;
44214;SDS011;29884;47.450;19.124;2023-05-10T03:27:26;2.65;;;1.08;;
44214;SDS011;29884;47.450;19.124;2023-05-10T03:29:53;3.58;;;1.00;;
44214;SDS011;29884;47.450;19.124;2023-05-10T03:32:20;2.80;;;1.00;;
44214;SDS011;29884;47.450;19.124;2023-05-10T03:34:45;1.98;;;1.00;;
44214;SDS011;29884;47.450;19.124;2023-05-10T03:37:11;3.60;;;1.08;;
44214;SDS011;29884;47.450;19.124;2023-05-10T03:39:37;1.48;;;0.85;;
44214;SDS011;29884;47.450;19.124;2023-05-10T03:42:03;1.75;;;1.00;;
44214;SDS011;29884;47.450;19.124;2023-05-10T03:44:29;2.97;;;1.42;;
44214;SDS011;29884;47.450;19.124;2023-05-10T03:46:54;1.77;;;1.00;;
44214;SDS011;29884;47.450;19.124;2023-05-10T03:49:22;1.33;;;0.90;;
44214;SDS011;29884;47.450;19.124;2023-05-10T03:51:47;2.72;;;0.90;;
44214;SDS011;29884;47.450;19.124;2023-05-10T03:54:13;1.20;;;0.80;;
44214;SDS011;29884;47.450;19.124;2023-05-10T03:56:39;1.50;;;1.00;;
44214;SDS011;29884;47.450;19.124;2023-05-10T03:59:05;2.72;;;1.02;;
44214;SDS011;29884;47.450;19.124;2023-05-10T04:01:33;1.45;;;0.95;;
44214;SDS011;29884;47.450;19.124;2023-05-10T04:03:59;1.38;;;1.00;;
44214;SDS011;29884;47.450;19.124;2023-05-10T04:06:24;3.47;;;1.10;;
44214;SDS011;29884;47.450;19.124;2023-05-10T04:08:50;1.95;;;1.20;;
44214;SDS011;29884;47.450;19.124;2023-05-10T04:11:16;4.07;;;1.13;;
44214;SDS011;29884;47.450;19.124;2023-05-10T04:13:41;1.52;;;1.00;;
44214;SDS011;29884;47.450;19.124;2023-05-10T04:16:08;1.98;;;1.00;;
44214;SDS011;29884;47.450;19.124;2023-05-10T04:18:33;1.98;;;1.00;;
44214;SDS011;29884;47.450;19.124;2023-05-10T04:21:00;1.90;;;1.02;;
44214;SDS011;29884;47.450;19.124;2023-05-10T04:23:26;1.85;;;0.98;;
44214;SDS011;29884;47.450;19.124;2023-05-10T04:25:52;2.00;;;1.05;;
44214;SDS011;29884;47.450;19.124;2023-05-10T04:28:24;3.42;;;1.10;;
44214;SDS011;29884;47.450;19.124;2023-05-10T04:30:50;3.28;;;1.20;;
44214;SDS011;29884;47.450;19.124;2023-05-10T04:33:16;1.50;;;1.20;;
44214;SDS011;29884;47.450;19.124;2023-05-10T04:35:42;1.95;;;1.20;;
44214;SDS011;29884;47.450;19.124;2023-05-10T04:38:09;1.95;;;1.17;;
44214;SDS011;29884;47.450;19.124;2023-05-10T04:40:35;2.15;;;1.20;;
44214;SDS011;29884;47.450;19.124;2023-05-10T04:43:01;2.88;;;1.20;;
44214;SDS011;29884;47.450;19.124;2023-05-10T04:45:26;2.40;;;1.23;;
44214;SDS011;29884;47.450;19.124;2023-05-10T04:47:52;2.63;;;1.33;;
44214;SDS011;29884;47.450;19.124;2023-05-10T04:50:18;2.65;;;1.25;;
44214;SDS011;29884;47.450;19.124;2023-05-10T04:52:44;3.05;;;1.10;;
44214;SDS011;29884;47.450;19.124;2023-05-10T04:55:09;2.97;;;1.30;;
44214;SDS011;29884;47.450;19.124;2023-05-10T04:57:35;2.10;;;1.15;;
44214;SDS011;29884;47.450;19.124;2023-05-10T05:00:01;1.70;;;1.10;;
44214;SDS011;29884;47.450;19.124;2023-05-10T05:02:27;3.15;;;1.20;;
44214;SDS011;29884;47.450;19.124;2023-05-10T05:04:55;2.13;;;1.20;;
44214;SDS011;29884;47.450;19.124;2023-05-10T05:07:22;1.63;;;1.10;;
44214;SDS011;29884;47.450;19.124;2023-05-10T05:09:48;3.35;;;1.25;;
44214;SDS011;29884;47.450;19.124;2023-05-10T05:12:14;2.70;;;1.50;;
44214;SDS011;29884;47.450;19.124;2023-05-10T05:14:40;3.30;;;1.30;;
44214;SDS011;29884;47.450;19.124;2023-05-10T05:17:06;2.92;;;1.30;;
44214;SDS011;29884;47.450;19.124;2023-05-10T05:19:32;3.80;;;1.10;;
44214;SDS011;29884;47.450;19.124;2023-05-10T05:21:58;1.85;;;1.40;;
44214;SDS011;29884;47.450;19.124;2023-05-10T05:24:23;2.05;;;1.25;;
44214;SDS011;29884;47.450;19.124;2023-05-10T05:26:49;4.60;;;1.50;;
44214;SDS011;29884;47.450;19.124;2023-05-10T05:29:15;1.88;;;1.20;;
44214;SDS011;29884;47.450;19.124;2023-05-10T05:31:41;3.30;;;1.10;;
44214;SDS011;29884;47.450;19.124;2023-05-10T05:34:06;2.15;;;1.30;;
44214;SDS011;29884;47.450;19.124;2023-05-10T05:36:35;2.03;;;1.20;;
44214;SDS011;29884;47.450;19.124;2023-05-10T05:39:03;2.17;;;1.25;;
44214;SDS011;29884;47.450;19.124;2023-05-10T05:41:29;3.03;;;1.30;;
44214;SDS011;29884;47.450;19.124;2023-05-10T05:43:54;1.85;;;1.15;;
44214;SDS011;29884;47.450;19.124;2023-05-10T05:46:20;2.30;;;1.10;;
44214;SDS011;29884;47.450;19.124;2023-05-10T05:48:46;1.80;;;1.30;;
44214;SDS011;29884;47.450;19.124;2023-05-10T05:51:12;3.42;;;1.27;;
44214;SDS011;29884;47.450;19.124;2023-05-10T05:53:37;2.67;;;1.23;;
44214;SDS011;29884;47.450;19.124;2023-05-10T05:56:03;2.15;;;1.30;;
44214;SDS011;29884;47.450;19.124;2023-05-10T05:58:29;2.38;;;1.30;;
44214;SDS011;29884;47.450;19.124;2023-05-10T06:00:55;1.58;;;1.10;;
44214;SDS011;29884;47.450;19.124;2023-05-10T06:03:20;5.18;;;1.50;;
44214;SDS011;29884;47.450;19.124;2023-05-10T06:05:46;2.50;;;1.40;;
44214;SDS011;29884;47.450;19.124;2023-05-10T06:08:12;3.72;;;1.10;;
44214;SDS011;29884;47.450;19.124;2023-05-10T06:10:38;3.00;;;1.08;;
44214;SDS011;29884;47.450;19.124;2023-05-10T06:13:03;2.50;;;1.00;;
44214;SDS011;29884;47.450;19.124;2023-05-10T06:15:29;3.35;;;1.10;;
44214;SDS011;29884;47.450;19.124;2023-05-10T06:17:55;3.28;;;1.20;;
44214;SDS011;29884;47.450;19.124;2023-05-10T06:20:21;2.55;;;1.20;;
44214;SDS011;29884;47.450;19.124;2023-05-10T06:22:46;1.92;;;1.20;;
44214;SDS011;29884;47.450;19.124;2023-05-10T06:25:12;3.78;;;1.63;;
44214;SDS011;29884;47.450;19.124;2023-05-10T06:27:39;2.72;;;1.48;;
44214;SDS011;29884;47.450;19.124;2023-05-10T06:30:05;2.03;;;1.20;;
44214;SDS011;29884;47.450;19.124;2023-05-10T06:32:31;2.85;;;1.40;;
44214;SDS011;29884;47.450;19.124;2023-05-10T06:34:57;2.25;;;1.30;;
44214;SDS011;29884;47.450;19.124;2023-05-10T06:37:22;2.42;;;1.33;;
44214;SDS011;29884;47.450;19.124;2023-05-10T06:39:48;2.05;;;1.35;;
44214;SDS011;29884;47.450;19.124;2023-05-10T06:42:14;2.92;;;1.35;;
44214;SDS011;29884;47.450;19.124;2023-05-10T06:44:39;3.90;;;1.50;;
44214;SDS011;29884;47.450;19.124;2023-05-10T06:47:05;1.90;;;1.20;;
44214;SDS011;29884;47.450;19.124;2023-05-10T06:49:31;2.17;;;1.30;;
44214;SDS011;29884;47.450;19.124;2023-05-10T06:51:56;2.28;;;1.38;;
44214;SDS011;29884;47.450;19.124;2023-05-10T06:54:22;2.10;;;1.20;;
44214;SDS011;29884;47.450;19.124;2023-05-10T06:56:48;3.05;;;1.63;;
44214;SDS011;29884;47.450;19.124;2023-05-10T06:59:14;2.22;;;1.10;;
44214;SDS011;29884;47.450;19.124;2023-05-10T07:01:41;2.58;;;1.30;;
44214;SDS011;29884;47.450;19.124;2023-05-10T07:04:07;2.15;;;1.30;;
44214;SDS011;29884;47.450;19.124;2023-05-10T07:06:33;2.13;;;1.42;;
44214;SDS011;29884;47.450;19.124;2023-05-10T07:08:59;2.33;;;1.40;;
44214;SDS011;29884;47.450;19.124;2023-05-10T07:11:25;1.45;;;1.00;;
44214;SDS011;29884;47.450;19.124;2023-05-10T07:13:51;1.90;;;1.30;;
44214;SDS011;29884;47.450;19.124;2023-05-10T07:16:17;3.10;;;1.30;;
44214;SDS011;29884;47.450;19.124;2023-05-10T07:18:43;2.08;;;1.10;;
44214;SDS011;29884;47.450;19.124;2023-05-10T07:21:09;2.65;;;1.20;;
44214;SDS011;29884;47.450;19.124;2023-05-10T07:23:35;3.20;;;1.20;;
44214;SDS011;29884;47.450;19.124;2023-05-10T07:26:01;2.05;;;1.10;;
44214;SDS011;29884;47.450;19.124;2023-05-10T07:28:27;1.48;;;1.00;;
44214;SDS011;29884;47.450;19.124;2023-05-10T07:30:52;2.10;;;1.10;;
44214;SDS011;29884;47.450;19.124;2023-05-10T07:33:18;1.95;;;1.00;;
44214;SDS011;29884;47.450;19.124;2023-05-10T07:35:47;1.58;;;1.00;;
44214;SDS011;29884;47.450;19.124;2023-05-10T07:38:13;1.48;;;1.00;;
44214;SDS011;29884;47.450;19.124;2023-05-10T07:40:39;2.50;;;0.90;;
44214;SDS011;29884;47.450;19.124;2023-05-10T07:43:05;2.00;;;1.00;;
44214;SDS011;29884;47.450;19.124;2023-05-10T07:45:31;3.05;;;1.00;;
44214;SDS011;29884;47.450;19.124;2023-05-10T07:47:58;1.65;;;0.90;;
44214;SDS011;29884;47.450;19.124;2023-05-10T07:50:24;1.85;;;1.00;;
44214;SDS011;29884;47.450;19.124;2023-05-10T07:52:49;2.60;;;1.13;;
44214;SDS011;29884;47.450;19.124;2023-05-10T07:55:15;2.22;;;1.02;;
44214;SDS011;29884;47.450;19.124;2023-05-10T07:57:43;1.27;;;1.00;;
44214;SDS011;29884;47.450;19.124;2023-05-10T08:00:08;2.15;;;1.10;;
44214;SDS011;29884;47.450;19.124;2023-05-10T08:02:38;1.50;;;0.82;;
44214;SDS011;29884;47.450;19.124;2023-05-10T08:05:05;1.60;;;0.80;;
44214;SDS011;29884;47.450;19.124;2023-05-10T08:07:31;1.63;;;1.00;;
44214;SDS011;29884;47.450;19.124;2023-05-10T08:09:57;2.03;;;0.82;;
44214;SDS011;29884;47.450;19.124;2023-05-10T08:12:23;3.50;;;1.00;;
44214;SDS011;29884;47.450;19.124;2023-05-10T08:14:49;2.40;;;1.30;;
44214;SDS011;29884;47.450;19.124;2023-05-10T08:17:14;1.80;;;1.10;;
44214;SDS011;29884;47.450;19.124;2023-05-10T08:19:40;1.10;;;0.80;;
44214;SDS011;29884;47.450;19.124;2023-05-10T08:22:06;1.48;;;0.90;;
44214;SDS011;29884;47.450;19.124;2023-05-10T08:24:31;1.75;;;0.80;;
44214;SDS011;29884;47.450;19.124;2023-05-10T08:26:57;1.98;;;0.85;;
44214;SDS011;29884;47.450;19.124;2023-05-10T08:29:23;1.98;;;1.00;;
44214;SDS011;29884;47.450;19.124;2023-05-10T08:31:49;2.10;;;0.90;;
44214;SDS011;29884;47.450;19.124;2023-05-10T08:34:14;1.20;;;0.90;;
44214;SDS011;29884;47.450;19.124;2023-05-10T08:36:40;1.10;;;0.80;;
44214;SDS011;29884;47.450;19.124;2023-05-10T08:39:06;1.23;;;0.93;;
44214;SDS011;29884;47.450;19.124;2023-05-10T08:41:33;1.40;;;0.90;;
44214;SDS011;29884;47.450;19.124;2023-05-10T08:44:00;1.13;;;0.80;;
44214;SDS011;29884;47.450;19.124;2023-05-10T08:46:29;1.45;;;0.90;;
44214;SDS011;29884;47.450;19.124;2023-05-10T08:48:56;3.30;;;0.88;;
44214;SDS011;29884;47.450;19.124;2023-05-10T08:51:25;1.42;;;0.80;;
44214;SDS011;29884;47.450;19.124;2023-05-10T08:53:54;1.20;;;0.70;;
44214;SDS011;29884;47.450;19.124;2023-05-10T08:56:20;1.92;;;0.70;;
44214;SDS011;29884;47.450;19.124;2023-05-10T08:58:46;1.20;;;0.80;;
44214;SDS011;29884;47.450;19.124;2023-05-10T09:01:12;1.00;;;0.80;;
44214;SDS011;29884;47.450;19.124;2023-05-10T09:03:40;2.25;;;0.88;;
44214;SDS011;29884;47.450;19.124;2023-05-10T09:06:06;1.25;;;0.80;;
44214;SDS011;29884;47.450;19.124;2023-05-10T09:08:32;1.83;;;1.00;;
44214;SDS011;29884;47.450;19.124;2023-05-10T09:10:59;2.03;;;0.80;;
44214;SDS011;29884;47.450;19.124;2023-05-10T09:13:26;2.33;;;0.90;;
44214;SDS011;29884;47.450;19.124;2023-05-10T09:15:53;2.08;;;0.85;;
44214;SDS011;29884;47.450;19.124;2023-05-10T09:18:19;1.38;;;0.90;;
44214;SDS011;29884;47.450;19.124;2023-05-10T09:20:45;2.10;;;0.80;;
44214;SDS011;29884;47.450;19.124;2023-05-10T09:23:10;1.50;;;0.85;;
44214;SDS011;29884;47.450;19.124;2023-05-10T09:25:36;1.48;;;0.90;;
44214;SDS011;29884;47.450;19.124;2023-05-10T09:28:05;3.60;;;0.98;;
44214;SDS011;29884;47.450;19.124;2023-05-10T09:30:33;1.17;;;0.80;;
44214;SDS011;29884;47.450;19.124;2023-05-10T09:32:59;1.30;;;0.70;;
44214;SDS011;29884;47.450;19.124;2023-05-10T09:35:26;0.98;;;0.85;;
44214;SDS011;29884;47.450;19.124;2023-05-10T09:37:56;1.40;;;1.00;;
44214;SDS011;29884;47.450;19.124;2023-05-10T09:40:27;1.43;;;0.80;;
44214;SDS011;29884;47.450;19.124;2023-05-10T09:42:56;1.40;;;0.80;;
44214;SDS011;29884;47.450;19.124;2023-05-10T09:45:23;1.63;;;0.63;;
44214;SDS011;29884;47.450;19.124;2023-05-10T09:47:50;1.02;;;0.70;;
44214;SDS011;29884;47.450;19.124;2023-05-10T09:50:16;1.75;;;0.70;;
44214;SDS011;29884;47.450;19.124;2023-05-10T09:52:54;1.00;;;0.77;;
44214;SDS011;29884;47.450;19.124;2023-05-10T09:55:46;1.08;;;0.80;;
44214;SDS011;29884;47.450;19.124;2023-05-10T09:58:12;1.42;;;0.60;;
44214;SDS011;29884;47.450;19.124;2023-05-10T10:00:40;1.58;;;0.75;;
44214;SDS011;29884;47.450;19.124;2023-05-10T10:03:13;0.77;;;0.63;;
44214;SDS011;29884;47.450;19.124;2023-05-10T10:05:40;1.15;;;0.70;;
44214;SDS011;29884;47.450;19.124;2023-05-10T10:08:10;2.65;;;0.60;;
44214;SDS011;29884;47.450;19.124;2023-05-10T10:10:37;2.00;;;0.70;;
44214;SDS011;29884;47.450;19.124;2023-05-10T10:13:05;1.10;;;0.80;;
44214;SDS011;29884;47.450;19.124;2023-05-10T10:15:31;0.88;;;0.50;;
44214;SDS011;29884;47.450;19.124;2023-05-10T10:17:58;0.90;;;0.63;;
44214;SDS011;29884;47.450;19.124;2023-05-10T10:20:25;1.00;;;0.50;;
44214;SDS011;29884;47.450;19.124;2023-05-10T10:22:52;0.90;;;0.60;;
44214;SDS011;29884;47.450;19.124;2023-05-10T10:25:18;0.82;;;0.50;;
44214;SDS011;29884;47.450;19.124;2023-05-10T10:30:20;0.70;;;0.50;;
44214;SDS011;29884;47.450;19.124;2023-05-10T10:33:11;2.65;;;0.50;;
44214;SDS011;29884;47.450;19.124;2023-05-10T10:35:39;1.55;;;0.50;;
44214;SDS011;29884;47.450;19.124;2023-05-10T10:38:05;0.75;;;0.50;;
44214;SDS011;29884;47.450;19.124;2023-05-10T10:40:33;1.30;;;0.60;;
44214;SDS011;29884;47.450;19.124;2023-05-10T10:48:41;0.80;;;0.60;;
44214;SDS011;29884;47.450;19.124;2023-05-10T10:51:13;0.50;;;0.40;;
44214;SDS011;29884;47.450;19.124;2023-05-10T10:53:39;0.50;;;0.40;;
44214;SDS011;29884;47.450;19.124;2023-05-10T10:56:09;0.68;;;0.50;;
44214;SDS011;29884;47.450;19.124;2023-05-10T10:58:37;1.80;;;0.55;;
44214;SDS011;29884;47.450;19.124;2023-05-10T11:01:11;0.68;;;0.50;;
44214;SDS011;29884;47.450;19.124;2023-05-10T11:03:41;1.13;;;0.50;;
44214;SDS011;29884;47.450;19.124;2023-05-10T11:06:33;1.92;;;0.57;;
44214;SDS011;29884;47.450;19.124;2023-05-10T11:09:07;0.38;;;0.32;;
44214;SDS011;29884;47.450;19.124;2023-05-10T11:11:34;0.70;;;0.50;;
44214;SDS011;29884;47.450;19.124;2023-05-10T11:14:04;0.95;;;0.40;;
44214;SDS011;29884;47.450;19.124;2023-05-10T11:16:41;1.05;;;0.60;;
44214;SDS011;29884;47.450;19.124;2023-05-10T11:19:09;1.98;;;0.40;;
44214;SDS011;29884;47.450;19.124;2023-05-10T11:21:45;0.75;;;0.50;;
44214;SDS011;29884;47.450;19.124;2023-05-10T11:24:15;0.88;;;0.50;;
44214;SDS011;29884;47.450;19.124;2023-05-10T11:26:43;0.43;;;0.35;;
44214;SDS011;29884;47.450;19.124;2023-05-10T11:29:09;1.58;;;0.30;;
44214;SDS011;29884;47.450;19.124;2023-05-10T11:31:34;0.68;;;0.40;;
44214;SDS011;29884;47.450;19.124;2023-05-10T11:34:06;2.55;;;0.50;;
44214;SDS011;29884;47.450;19.124;2023-05-10T11:36:33;0.70;;;0.50;;
44214;SDS011;29884;47.450;19.124;2023-05-10T11:39:01;0.75;;;0.50;;
44214;SDS011;29884;47.450;19.124;2023-05-10T11:41:28;1.40;;;0.40;;
44214;SDS011;29884;47.450;19.124;2023-05-10T11:43:55;0.47;;;0.35;;
44214;SDS011;29884;47.450;19.124;2023-05-10T11:46:24;0.77;;;0.40;;
44214;SDS011;29884;47.450;19.124;2023-05-10T11:48:52;2.15;;;0.45;;
44214;SDS011;29884;47.450;19.124;2023-05-10T11:51:24;1.95;;;0.50;;
44214;SDS011;29884;47.450;19.124;2023-05-10T11:53:54;2.38;;;0.40;;
44214;SDS011;29884;47.450;19.124;2023-05-10T11:56:21;0.65;;;0.50;;
44214;SDS011;29884;47.450;19.124;2023-05-10T11:58:57;0.50;;;0.40;;
44214;SDS011;29884;47.450;19.124;2023-05-10T12:01:23;0.63;;;0.40;;
44214;SDS011;29884;47.450;19.124;2023-05-10T12:03:50;0.68;;;0.50;;
44214;SDS011;29884;47.450;19.124;2023-05-10T12:06:18;0.68;;;0.40;;
44214;SDS011;29884;47.450;19.124;2023-05-10T12:08:45;0.90;;;0.40;;
44214;SDS011;29884;47.450;19.124;2023-05-10T12:11:12;2.80;;;0.40;;
44214;SDS011;29884;47.450;19.124;2023-05-10T12:13:42;1.13;;;0.40;;
44214;SDS011;29884;47.450;19.124;2023-05-10T12:18:43;0.70;;;0.40;;
44214;SDS011;29884;47.450;19.124;2023-05-10T12:21:10;1.05;;;0.50;;
44214;SDS011;29884;47.450;19.124;2023-05-10T12:23:37;1.17;;;0.47;;
44214;SDS011;29884;47.450;19.124;2023-05-10T12:26:03;0.50;;;0.45;;
44214;SDS011;29884;47.450;19.124;2023-05-10T12:28:30;2.72;;;0.50;;
44214;SDS011;29884;47.450;19.124;2023-05-10T12:31:00;0.40;;;0.35;;
44214;SDS011;29884;47.450;19.124;2023-05-10T12:33:26;1.23;;;0.50;;
44214;SDS011;29884;47.450;19.124;2023-05-10T12:35:52;0.50;;;0.30;;
44214;SDS011;29884;47.450;19.124;2023-05-10T12:38:26;0.75;;;0.30;;
44214;SDS011;29884;47.450;19.124;2023-05-10T12:40:53;0.70;;;0.35;;
44214;SDS011;29884;47.450;19.124;2023-05-10T12:43:19;0.30;;;0.30;;
44214;SDS011;29884;47.450;19.124;2023-05-10T12:45:45;2.15;;;0.40;;
44214;SDS011;29884;47.450;19.124;2023-05-10T12:48:13;1.00;;;0.22;;
44214;SDS011;29884;47.450;19.124;2023-05-10T12:50:38;0.80;;;0.30;;
44214;SDS011;29884;47.450;19.124;2023-05-10T12:53:04;1.27;;;0.35;;
44214;SDS011;29884;47.450;19.124;2023-05-10T12:55:30;1.00;;;0.30;;
44214;SDS011;29884;47.450;19.124;2023-05-10T12:57:56;1.85;;;0.30;;
44214;SDS011;29884;47.450;19.124;2023-05-10T13:00:21;1.90;;;0.40;;
44214;SDS011;29884;47.450;19.124;2023-05-10T13:02:47;1.25;;;0.30;;
44214;SDS011;29884;47.450;19.124;2023-05-10T13:05:13;0.85;;;0.40;;
44214;SDS011;29884;47.450;19.124;2023-05-10T13:07:38;1.48;;;0.30;;
44214;SDS011;29884;47.450;19.124;2023-05-10T13:10:05;0.82;;;0.30;;
44214;SDS011;29884;47.450;19.124;2023-05-10T13:12:31;0.35;;;0.25;;
44214;SDS011;29884;47.450;19.124;2023-05-10T13:14:57;0.52;;;0.40;;
44214;SDS011;29884;47.450;19.124;2023-05-10T13:17:24;1.02;;;0.30;;
44214;SDS011;29884;47.450;19.124;2023-05-10T13:19:50;0.63;;;0.30;;
44214;SDS011;29884;47.450;19.124;2023-05-10T13:22:16;0.57;;;0.30;;
44214;SDS011;29884;47.450;19.124;2023-05-10T13:24:42;0.40;;;0.30;;
44214;SDS011;29884;47.450;19.124;2023-05-10T13:27:08;0.22;;;0.20;;
44214;SDS011;29884;47.450;19.124;2023-05-10T13:29:33;0.63;;;0.30;;
44214;SDS011;29884;47.450;19.124;2023-05-10T13:31:59;0.35;;;0.28;;
44214;SDS011;29884;47.450;19.124;2023-05-10T13:34:25;0.40;;;0.30;;
44214;SDS011;29884;47.450;19.124;2023-05-10T13:36:51;0.30;;;0.20;;
44214;SDS011;29884;47.450;19.124;2023-05-10T13:39:18;0.73;;;0.30;;
44214;SDS011;29884;47.450;19.124;2023-05-10T13:41:46;1.05;;;0.30;;
44214;SDS011;29884;47.450;19.124;2023-05-10T13:44:12;1.48;;;0.40;;
44214;SDS011;29884;47.450;19.124;2023-05-10T13:46:40;0.80;;;0.35;;
44214;SDS011;29884;47.450;19.124;2023-05-10T13:49:07;0.65;;;0.30;;
44214;SDS011;29884;47.450;19.124;2023-05-10T13:51:34;0.50;;;0.30;;
44214;SDS011;29884;47.450;19.124;2023-05-10T13:54:00;0.30;;;0.20;;
44214;SDS011;29884;47.450;19.124;2023-05-10T13:56:29;0.30;;;0.22;;
44214;SDS011;29884;47.450;19.124;2023-05-10T13:58:56;0.60;;;0.30;;
44214;SDS011;29884;47.450;19.124;2023-05-10T14:01:22;0.65;;;0.20;;
44214;SDS011;29884;47.450;19.124;2023-05-10T14:03:48;0.40;;;0.30;;
44214;SDS011;29884;47.450;19.124;2023-05-10T14:06:13;2.53;;;0.40;;
44214;SDS011;29884;47.450;19.124;2023-05-10T14:08:39;0.30;;;0.30;;
44214;SDS011;29884;47.450;19.124;2023-05-10T14:11:05;1.65;;;0.20;;
44214;SDS011;29884;47.450;19.124;2023-05-10T14:13:31;0.98;;;0.20;;
44214;SDS011;29884;47.450;19.124;2023-05-10T14:15:57;1.10;;;0.20;;
44214;SDS011;29884;47.450;19.124;2023-05-10T14:18:26;0.32;;;0.25;;
44214;SDS011;29884;47.450;19.124;2023-05-10T14:20:52;2.60;;;0.20;;
44214;SDS011;29884;47.450;19.124;2023-05-10T14:23:17;0.85;;;0.30;;
44214;SDS011;29884;47.450;19.124;2023-05-10T14:25:48;0.30;;;0.20;;
44214;SDS011;29884;47.450;19.124;2023-05-10T14:28:14;0.40;;;0.30;;
44214;SDS011;29884;47.450;19.124;2023-05-10T14:30:40;0.52;;;0.20;;
44214;SDS011;29884;47.450;19.124;2023-05-10T14:33:06;0.25;;;0.20;;
44214;SDS011;29884;47.450;19.124;2023-05-10T14:35:32;0.43;;;0.20;;
44214;SDS011;29884;47.450;19.124;2023-05-10T14:37:58;0.52;;;0.25;;
44214;SDS011;29884;47.450;19.124;2023-05-10T14:40:24;0.52;;;0.30;;
44214;SDS011;29884;47.450;19.124;2023-05-10T14:42:50;0.20;;;0.20;;
44214;SDS011;29884;47.450;19.124;2023-05-10T14:45:17;0.30;;;0.20;;
44214;SDS011;29884;47.450;19.124;2023-05-10T14:47:43;0.25;;;0.20;;
44214;SDS011;29884;47.450;19.124;2023-05-10T14:50:08;0.30;;;0.20;;
44214;SDS011;29884;47.450;19.124;2023-05-10T14:52:34;1.20;;;0.20;;
44214;SDS011;29884;47.450;19.124;2023-05-10T14:55:00;0.30;;;0.20;;
44214;SDS011;29884;47.450;19.124;2023-05-10T14:57:27;1.08;;;0.28;;
44214;SDS011;29884;47.450;19.124;2023-05-10T14:59:54;0.40;;;0.20;;
44214;SDS011;29884;47.450;19.124;2023-05-10T15:02:21;0.30;;;0.20;;
44214;SDS011;29884;47.450;19.124;2023-05-10T15:04:47;0.40;;;0.20;;
44214;SDS011;29884;47.450;19.124;2023-05-10T15:07:12;0.35;;;0.20;;
44214;SDS011;29884;47.450;19.124;2023-05-10T15:09:40;0.10;;;0.10;;